Time;durP1;ratioP1;P1;durP2;ratioP2;P2;SDS_P1;SDS_P2;PMS_P1;PMS_P2;Temp;Humidity;BMP_temperature;BMP_pressure;BME280_temperature;BME280_humidity;BME280_pressure;Samples;Min_cycle;Max_cycle;Signal;HPM_P1;HPM_P2
2023/02/13 00:00:21;;;;;;;34.38;17.88;;;;;;;6.36;94.54;103798.03;5037926;28;20200;-75
2023/02/13 00:02:46;;;;;;;31.35;16.67;;;;;;;6.36;94.59;103799.78;5037169;28;20072;-75
2023/02/13 00:05:12;;;;;;;32.28;17.05;;;;;;;6.34;94.71;103798.00;5037183;28;20041;-75
2023/02/13 00:07:38;;;;;;;32.28;16.67;;;;;;;6.34;94.88;103792.78;5035950;28;20249;-75
2023/02/13 00:10:04;;;;;;;29.00;15.88;;;;;;;6.36;94.98;103797.16;5034789;28;20537;-75
2023/02/13 00:12:29;;;;;;;37.53;19.85;;;;;;;6.37;94.88;103796.31;5056553;28;20037;-75
2023/02/13 00:14:54;;;;;;;36.28;19.17;;;;;;;6.36;94.86;103795.44;5042568;28;20061;-75
2023/02/13 00:17:20;;;;;;;34.33;19.55;;;;;;;6.35;94.55;103793.69;5041254;28;20041;-75
2023/02/13 00:19:45;;;;;;;32.42;17.65;;;;;;;6.33;94.42;103796.25;5043945;28;20043;-75
2023/02/13 00:22:11;;;;;;;36.45;19.48;;;;;;;6.32;94.36;103794.47;5042022;28;20101;-75
2023/02/13 00:24:36;;;;;;;35.33;18.67;;;;;;;6.29;93.94;103794.44;5058310;28;20036;-75
2023/02/13 00:27:01;;;;;;;39.10;20.52;;;;;;;6.27;94.13;103790.88;5056991;28;20332;-75
2023/02/13 00:29:27;;;;;;;35.35;18.55;;;;;;;6.28;94.28;103789.19;5038362;28;20101;-75
2023/02/13 00:31:52;;;;;;;36.50;19.20;;;;;;;6.26;94.29;103783.94;5039024;28;20348;-75
2023/02/13 00:34:17;;;;;;;30.55;16.90;;;;;;;6.27;94.52;103788.28;5042591;28;20404;-75
2023/02/13 00:36:43;;;;;;;28.88;16.45;;;;;;;6.29;94.55;103783.13;5042933;28;20045;-75
2023/02/13 00:39:11;;;;;;;27.48;15.55;;;;;;;6.30;94.73;103785.75;5060121;28;20385;-75
2023/02/13 00:41:38;;;;;;;28.48;15.57;;;;;;;6.32;94.63;103786.69;5062355;28;20033;-75
2023/02/13 00:44:03;;;;;;;29.98;16.45;;;;;;;6.32;94.51;103788.41;5046857;28;20383;-75
2023/02/13 00:46:29;;;;;;;29.33;15.68;;;;;;;6.33;94.67;103791.06;5042239;28;20063;-75
2023/02/13 00:48:54;;;;;;;26.48;14.90;;;;;;;6.34;94.93;103784.13;5056622;28;20061;-75
2023/02/13 00:51:19;;;;;;;29.08;14.80;;;;;;;6.37;95.19;103788.50;5062366;28;20033;-75
2023/02/13 00:53:45;;;;;;;36.08;18.13;;;;;;;6.38;95.45;103787.69;5049933;28;20033;-75
2023/02/13 00:56:10;;;;;;;28.35;14.55;;;;;;;6.39;95.40;103779.03;5042597;28;20033;-75
2023/02/13 00:58:36;;;;;;;32.95;16.38;;;;;;;6.38;95.29;103775.53;5052147;28;20426;-75
2023/02/13 01:01:01;;;;;;;37.33;17.83;;;;;;;6.36;95.12;103771.16;5026983;28;20320;-75
2023/02/13 01:03:27;;;;;;;40.13;21.10;;;;;;;6.33;94.56;103772.84;5041783;28;20045;-75
2023/02/13 01:05:54;;;;;;;37.75;20.10;;;;;;;6.31;94.32;103773.63;5042509;28;20120;-75
2023/02/13 01:08:20;;;;;;;33.83;18.08;;;;;;;6.31;94.70;103769.31;5042535;28;20053;-75
2023/02/13 01:10:47;;;;;;;32.95;17.60;;;;;;;6.32;94.96;103772.78;5057171;28;20056;-75
2023/02/13 01:13:14;;;;;;;29.02;16.23;;;;;;;6.32;95.26;103772.78;5056581;28;20037;-75
2023/02/13 01:15:40;;;;;;;34.05;17.15;;;;;;;6.32;95.11;103768.47;5042415;28;20033;-75
2023/02/13 01:18:06;;;;;;;33.10;17.35;;;;;;;6.31;95.10;103768.41;5028268;28;20235;-75
2023/02/13 01:20:31;;;;;;;26.63;15.48;;;;;;;6.33;95.05;103766.72;5061593;28;20043;-75
2023/02/13 01:22:57;;;;;;;38.30;18.60;;;;;;;6.31;95.26;103769.31;5059818;28;20029;-75
2023/02/13 01:25:23;;;;;;;29.52;14.93;;;;;;;6.33;95.15;103766.72;5041451;28;20108;-75
2023/02/13 01:27:48;;;;;;;27.58;15.43;;;;;;;6.34;95.26;103765.91;5042874;28;20556;-75
2023/02/13 01:30:15;;;;;;;28.15;15.52;;;;;;;6.35;95.60;103757.25;5061460;28;20344;-75
2023/02/13 01:32:42;;;;;;;28.52;16.17;;;;;;;6.37;95.62;103763.38;5049737;28;20045;-75
2023/02/13 01:35:09;;;;;;;36.70;19.55;;;;;;;6.36;95.63;103755.53;5046951;28;20071;-75
2023/02/13 01:37:35;;;;;;;33.28;17.45;;;;;;;6.36;95.53;103758.13;5061161;28;20060;-75
2023/02/13 01:40:01;;;;;;;31.88;17.08;;;;;;;6.37;95.85;103760.78;5043907;28;20064;-75
2023/02/13 01:42:30;;;;;;;29.38;15.65;;;;;;;6.38;96.09;103766.84;5041193;28;20088;-74
2023/02/13 01:45:00;;;;;;;37.60;18.42;;;;;;;6.37;96.18;103758.16;5057142;28;20061;-75
2023/02/13 01:47:41;;;;;;;36.38;18.65;;;;;;;6.35;95.64;103757.25;5061244;28;20068;-75
2023/02/13 01:50:21;;;;;;;31.48;17.45;;;;;;;6.36;95.65;103763.34;5045376;28;20100;-75
2023/02/13 01:52:51;;;;;;;32.65;16.45;;;;;;;6.37;95.91;103759.88;5061315;28;20044;-75
2023/02/13 01:55:17;;;;;;;33.33;16.92;;;;;;;6.37;96.22;103757.25;5040988;28;20344;-75
2023/02/13 01:57:50;;;;;;;28.88;16.05;;;;;;;6.37;96.14;103755.56;5041226;28;20398;-75
2023/02/13 02:00:16;;;;;;;28.92;15.63;;;;;;;6.39;96.37;103753.00;5060384;28;20041;-75
2023/02/13 02:02:49;;;;;;;27.50;14.73;;;;;;;6.39;96.58;103753.88;5048981;28;20041;-75
2023/02/13 02:05:16;;;;;;;33.05;16.83;;;;;;;6.40;96.78;103755.63;5040737;28;20033;-75
2023/02/13 02:07:44;;;;;;;31.20;16.17;;;;;;;6.41;96.99;103757.38;5047080;28;20059;-75
2023/02/13 02:10:19;;;;;;;27.65;15.18;;;;;;;6.41;96.90;103759.13;5060566;28;20048;-75
2023/02/13 02:13:03;;;;;;;33.50;18.15;;;;;;;6.38;96.51;103767.72;5041151;28;20144;-75
2023/02/13 02:15:28;;;;;;;41.38;21.13;;;;;;;6.31;95.30;103756.31;5042835;28;20040;-75
2023/02/13 02:17:54;;;;;;;37.05;20.42;;;;;;;6.30;95.42;103759.75;5060669;28;20036;-75
2023/02/13 02:20:42;;;;;;;34.53;17.85;;;;;;;6.32;95.89;103759.78;5059628;28;20035;-75
2023/02/13 02:23:23;;;;;;;30.35;16.65;;;;;;;6.33;96.21;103753.72;5000235;28;20060;-75
2023/02/13 02:25:57;;;;;;;30.95;16.52;;;;;;;6.33;96.54;103749.41;5059618;28;20244;-75
2023/02/13 02:28:44;;;;;;;31.23;16.83;;;;;;;6.34;96.54;103751.16;5059991;28;20036;-75
2023/02/13 02:31:18;;;;;;;26.67;15.27;;;;;;;6.36;96.67;103743.38;5027423;28;20072;-75
2023/02/13 02:34:08;;;;;;;25.85;14.48;;;;;;;6.37;96.83;103749.47;5042823;28;20037;-75
2023/02/13 02:36:40;;;;;;;25.13;14.18;;;;;;;6.39;97.11;103745.19;5051087;28;20037;-75
2023/02/13 02:39:28;;;;;;;27.85;15.57;;;;;;;6.36;96.82;103751.19;5045198;28;20040;-75
2023/02/13 02:42:09;;;;;;;41.00;20.38;;;;;;;6.36;96.54;103740.78;5060392;28;20033;-75
2023/02/13 02:44:44;;;;;;;36.85;20.00;;;;;;;6.30;95.48;103738.91;5052348;28;20029;-75
2023/02/13 02:50:13;;;;;;;33.50;17.50;;;;;;;6.28;95.84;103740.59;5040903;28;20045;-75
2023/02/13 02:53:04;;;;;;;32.55;16.98;;;;;;;6.29;96.06;103744.97;5059895;28;20272;-75
2023/02/13 02:55:48;;;;;;;31.65;17.88;;;;;;;6.26;95.83;103731.88;5045201;28;20236;-75
2023/02/13 03:06:53;;;;;;;31.50;14.68;;;;;;;6.32;96.50;103724.22;5036282;28;20108;-75
2023/02/13 03:14:56;;;;;;;24.67;14.23;;;;;;;6.36;96.91;103730.38;5040111;28;20040;-75
2023/02/13 03:23:12;;;;;;;33.45;17.83;;;;;;;6.32;96.41;103725.94;5036343;28;20047;-75
2023/02/13 03:26:05;;;;;;;42.17;20.83;;;;;;;6.28;95.70;103725.00;5040280;28;20210;-75
2023/02/13 03:32:53;;;;;;;34.53;18.35;;;;;;;6.22;95.14;103710.94;4939271;28;20198;-75
2023/02/13 03:38:43;;;;;;;37.75;20.02;;;;;;;6.18;95.41;103715.19;5038147;28;20044;-75
2023/02/13 03:41:32;;;;;;;40.83;21.85;;;;;;;6.16;95.16;103719.47;5040368;28;20037;-75
2023/02/13 03:44:15;;;;;;;37.53;20.55;;;;;;;6.13;94.78;103711.59;5039328;28;20119;-75
2023/02/13 03:46:45;;;;;;;39.63;20.95;;;;;;;6.09;94.83;103714.97;5023000;28;20037;-75
2023/02/13 03:52:23;;;;;;;42.28;21.17;;;;;;;6.05;94.81;103713.16;5041765;28;20036;-75
2023/02/13 04:00:35;;;;;;;37.97;20.77;;;;;;;6.04;95.45;103699.28;5041061;28;20264;-75
2023/02/13 04:03:10;;;;;;;38.10;19.00;;;;;;;6.06;95.43;103696.72;5049597;28;20367;-75
2023/02/13 04:05:41;;;;;;;34.92;17.23;;;;;;;6.07;95.52;103701.06;5058561;28;20029;-75
2023/02/13 04:08:07;;;;;;;41.00;20.30;;;;;;;6.08;95.79;103689.81;5048231;28;20224;-75
2023/02/13 04:10:36;;;;;;;32.72;16.63;;;;;;;6.10;95.74;103708.94;5038656;28;20268;-75
2023/02/13 04:13:04;;;;;;;24.48;13.65;;;;;;;6.13;96.11;103703.78;5047857;28;20124;-75
2023/02/13 04:15:37;;;;;;;23.15;12.63;;;;;;;6.15;96.36;103710.81;5055885;28;20048;-75
2023/02/13 04:18:15;;;;;;;25.75;13.48;;;;;;;6.18;96.23;103701.31;5017733;28;20038;-75
2023/02/13 04:20:41;;;;;;;37.90;17.83;;;;;;;6.20;96.43;103704.81;5023443;28;20085;-75
2023/02/13 04:23:08;;;;;;;30.20;16.92;;;;;;;6.19;96.11;103703.09;5038950;28;20041;-75
2023/02/13 04:25:36;;;;;;;29.52;15.65;;;;;;;6.18;96.12;103699.56;5039992;28;20173;-75
2023/02/13 04:28:02;;;;;;;26.55;16.27;;;;;;;6.18;96.11;103696.97;5058716;28;20068;-75
2023/02/13 04:30:27;;;;;;;32.88;17.02;;;;;;;6.19;96.43;103703.09;5040238;28;20336;-75
2023/02/13 04:32:53;;;;;;;30.77;15.45;;;;;;;6.22;96.76;103705.75;5038993;28;20037;-75
2023/02/13 04:35:19;;;;;;;29.15;14.88;;;;;;;6.22;96.53;103708.34;5046549;28;20053;-75
2023/02/13 04:37:44;;;;;;;29.10;15.50;;;;;;;6.23;96.60;103710.09;5056477;28;20040;-73
2023/02/13 04:40:10;;;;;;;31.05;15.75;;;;;;;6.23;96.77;103712.72;5058590;28;20095;-75
2023/02/13 04:42:36;;;;;;;29.55;16.52;;;;;;;6.22;96.32;103711.84;5050272;28;20034;-75
2023/02/13 04:45:01;;;;;;;30.52;16.17;;;;;;;6.21;96.20;103715.28;5042307;28;20347;-75
2023/02/13 04:47:27;;;;;;;29.73;15.57;;;;;;;6.20;96.34;103705.69;5057340;28;20061;-75
2023/02/13 04:49:52;;;;;;;27.60;14.48;;;;;;;6.22;96.61;103714.44;5038771;28;20037;-75
2023/02/13 04:52:17;;;;;;;29.48;15.95;;;;;;;6.25;96.57;103708.41;5038753;28;20100;-75
2023/02/13 04:54:43;;;;;;;33.70;18.77;;;;;;;6.22;96.11;103706.63;5057484;28;20264;-75
2023/02/13 04:57:08;;;;;;;32.60;17.40;;;;;;;6.19;95.99;103690.94;5058603;28;20359;-75
2023/02/13 04:59:34;;;;;;;31.13;16.73;;;;;;;6.19;96.03;103693.53;5040939;28;20381;-75
2023/02/13 05:01:59;;;;;;;31.10;16.55;;;;;;;6.19;96.23;103690.94;5038499;28;20045;-75
2023/02/13 05:04:25;;;;;;;31.48;15.98;;;;;;;6.18;96.09;103688.31;5038168;28;20198;-75
2023/02/13 05:06:50;;;;;;;32.42;15.57;;;;;;;6.17;96.03;103690.03;5038905;28;20056;-75
2023/02/13 05:09:16;;;;;;;23.20;13.25;;;;;;;6.18;96.33;103688.31;5051092;28;20253;-75
2023/02/13 05:11:41;;;;;;;26.23;13.90;;;;;;;6.20;96.50;103684.88;5058548;28;20041;-75
2023/02/13 05:14:08;;;;;;;26.40;14.00;;;;;;;6.22;96.51;103684.91;5046859;28;20325;-75
2023/02/13 05:16:33;;;;;;;24.77;12.85;;;;;;;6.23;96.70;103687.56;5037962;28;20037;-75
2023/02/13 05:18:59;;;;;;;28.08;15.23;;;;;;;6.23;96.53;103690.16;5030726;28;20043;-75
2023/02/13 05:24:08;;;;;;;26.33;13.98;;;;;;;6.21;96.57;103697.06;5051584;28;20052;-75
2023/02/13 05:26:33;;;;;;;23.58;13.18;;;;;;;6.20;96.43;103689.22;5058585;28;20132;-75
2023/02/13 05:29:17;;;;;;;23.63;13.15;;;;;;;6.22;96.69;103692.72;5053429;28;20137;-75
2023/02/13 05:31:43;;;;;;;23.15;12.60;;;;;;;6.24;96.67;103693.63;5041704;28;20105;-75
2023/02/13 05:34:08;;;;;;;23.77;13.52;;;;;;;6.24;96.96;103689.34;5042305;28;20352;-75
2023/02/13 05:36:34;;;;;;;22.63;13.10;;;;;;;6.25;96.99;103693.69;5041259;28;20333;-75
2023/02/13 05:38:59;;;;;;;24.52;13.85;;;;;;;6.26;97.20;103690.25;5049427;28;20150;-75
2023/02/13 05:41:25;;;;;;;20.83;11.93;;;;;;;6.27;97.30;103684.16;5061099;28;20044;-75
2023/02/13 05:43:50;;;;;;;36.08;17.88;;;;;;;6.27;97.23;103680.69;5054536;28;20041;-75
2023/02/13 05:46:16;;;;;;;26.35;14.48;;;;;;;6.27;97.39;103689.38;5043637;28;20236;-75
2023/02/13 05:48:41;;;;;;;28.80;15.60;;;;;;;6.26;97.28;103687.63;5044577;28;20067;-75
2023/02/13 05:51:06;;;;;;;26.80;15.07;;;;;;;6.27;97.45;103694.59;5061561;28;20029;-75
2023/02/13 05:53:35;;;;;;;24.73;13.77;;;;;;;6.27;97.57;103688.50;5059503;28;20228;-75
2023/02/13 05:56:02;;;;;;;26.52;14.25;;;;;;;6.28;97.67;103693.75;5041551;28;20040;-75
2023/02/13 05:58:28;;;;;;;28.40;14.77;;;;;;;6.28;97.63;103685.94;5037699;28;20033;-75
2023/02/13 06:00:57;;;;;;;25.25;14.32;;;;;;;6.29;97.59;103689.41;5021051;28;20044;-75
2023/02/13 06:03:29;;;;;;;26.33;14.30;;;;;;;6.26;97.49;103690.25;5038364;28;20045;-75
2023/02/13 06:05:55;;;;;;;24.45;13.63;;;;;;;6.26;97.43;103692.84;5059733;28;20082;-75
2023/02/13 06:08:21;;;;;;;33.55;17.05;;;;;;;6.25;97.38;103692.81;5059965;28;20233;-75
2023/02/13 06:10:47;;;;;;;29.05;15.73;;;;;;;6.22;97.24;103685.81;5042663;28;20045;-75
2023/02/13 06:13:13;;;;;;;29.90;15.75;;;;;;;6.21;97.56;103684.03;5041119;28;20357;-75
2023/02/13 06:15:39;;;;;;;30.88;17.00;;;;;;;6.22;97.52;103684.91;5048669;28;20232;-75
2023/02/13 06:18:04;;;;;;;29.52;16.38;;;;;;;6.20;97.29;103682.28;5040916;28;20052;-75
2023/02/13 06:20:30;;;;;;;37.13;19.17;;;;;;;6.17;97.45;103674.41;5055347;28;20049;-75
2023/02/13 06:22:55;;;;;;;30.20;16.42;;;;;;;6.19;97.32;103682.25;5060994;28;20080;-75
2023/02/13 06:25:21;;;;;;;36.78;17.83;;;;;;;6.19;97.62;103675.31;5047189;28;20398;-75
2023/02/13 06:27:46;;;;;;;27.42;13.20;;;;;;;6.21;97.86;103672.75;5040743;28;20086;-75
2023/02/13 06:30:12;;;;;;;25.70;13.75;;;;;;;6.22;97.86;103674.50;5037956;28;20152;-75
2023/02/13 06:32:38;;;;;;;23.75;12.95;;;;;;;6.23;98.02;103679.75;5040155;28;20080;-75
2023/02/13 06:35:04;;;;;;;23.25;13.30;;;;;;;6.24;98.13;103680.63;5043913;28;20087;-75
2023/02/13 06:37:29;;;;;;;22.90;12.50;;;;;;;6.25;98.40;103680.66;5059985;28;20332;-75
2023/02/13 06:39:55;;;;;;;27.75;14.98;;;;;;;6.26;98.38;103673.75;5049006;28;20033;-75
2023/02/13 06:42:20;;;;;;;23.17;12.52;;;;;;;6.26;98.44;103676.34;5040430;28;20029;-75
2023/02/13 06:44:46;;;;;;;22.05;12.27;;;;;;;6.28;98.38;103687.69;5046133;28;20025;-75
2023/02/13 06:47:11;;;;;;;19.90;12.07;;;;;;;6.29;98.51;103686.81;5059184;28;20044;-75
2023/02/13 06:49:37;;;;;;;19.40;11.80;;;;;;;6.30;98.46;103696.41;5038815;28;20049;-75
2023/02/13 06:52:02;;;;;;;19.45;11.93;;;;;;;6.31;98.52;103690.31;5038681;28;20044;-75
2023/02/13 06:54:28;;;;;;;21.08;11.75;;;;;;;6.30;98.62;103692.06;5020577;28;20324;-75
2023/02/13 06:56:53;;;;;;;29.95;15.13;;;;;;;6.32;98.89;103697.31;5039114;28;20277;-75
2023/02/13 06:59:19;;;;;;;24.08;13.13;;;;;;;6.31;98.97;103693.84;5039332;28;20041;-74
2023/02/13 07:01:44;;;;;;;24.45;13.95;;;;;;;6.32;99.10;103702.50;5039946;28;20048;-75
2023/02/13 07:04:09;;;;;;;29.50;15.10;;;;;;;6.32;99.06;103705.13;5040300;28;20041;-75
2023/02/13 07:06:35;;;;;;;25.40;13.50;;;;;;;6.32;99.22;103700.78;5039644;28;20033;-75
2023/02/13 07:09:02;;;;;;;26.60;14.02;;;;;;;6.34;99.71;103698.22;5040269;28;20049;-75
2023/02/13 07:11:27;;;;;;;27.27;13.95;;;;;;;6.33;99.10;103702.56;5039274;28;20029;-75
2023/02/13 07:13:53;;;;;;;26.83;14.15;;;;;;;6.32;99.60;103706.00;5040309;28;20064;-75
2023/02/13 07:16:18;;;;;;;25.42;14.05;;;;;;;6.32;99.51;103716.41;5022002;28;20056;-75
2023/02/13 07:18:44;;;;;;;29.27;14.27;;;;;;;6.34;99.79;103719.03;5037770;28;20041;-75
2023/02/13 07:21:09;;;;;;;27.40;15.02;;;;;;;6.34;99.74;103722.50;5039847;28;20037;-75
2023/02/13 07:23:35;;;;;;;27.25;14.75;;;;;;;6.33;99.95;103712.97;5039485;28;20028;-75
2023/02/13 07:26:01;;;;;;;26.65;14.48;;;;;;;6.34;99.94;103712.09;5039820;28;20104;-75
2023/02/13 07:28:27;;;;;;;29.50;15.38;;;;;;;6.35;100.00;103707.81;5039259;28;20033;-75
2023/02/13 07:30:53;;;;;;;30.52;15.40;;;;;;;6.36;100.00;103716.47;5039711;28;20033;-75
2023/02/13 07:33:18;;;;;;;32.17;15.55;;;;;;;6.35;100.00;103710.41;5038813;28;20214;-75
2023/02/13 07:35:48;;;;;;;28.67;15.18;;;;;;;6.36;100.00;103719.09;5039790;28;20245;-75
2023/02/13 07:38:14;;;;;;;29.98;15.57;;;;;;;6.36;100.00;103708.66;5039982;28;20345;-75
2023/02/13 07:40:40;;;;;;;29.27;15.65;;;;;;;6.36;100.00;103709.53;5039716;28;20283;-75
2023/02/13 07:43:05;;;;;;;29.77;14.80;;;;;;;6.36;100.00;103712.13;5038770;28;20032;-75
2023/02/13 07:45:31;;;;;;;31.77;15.93;;;;;;;6.37;100.00;103721.72;5038880;28;20041;-75
2023/02/13 07:47:57;;;;;;;29.00;15.23;;;;;;;6.36;100.00;103722.56;5038844;28;20041;-75
2023/02/13 07:50:22;;;;;;;26.45;13.93;;;;;;;6.38;100.00;103720.00;5038579;28;20045;-75
2023/02/13 07:53:01;;;;;;;29.25;16.13;;;;;;;6.36;100.00;103717.34;5039664;28;20049;-75
2023/02/13 07:55:27;;;;;;;29.43;15.67;;;;;;;6.36;100.00;103721.69;5038503;28;20041;-75
2023/02/13 07:57:53;;;;;;;27.08;14.40;;;;;;;6.35;100.00;103718.22;5039002;28;20638;-75
2023/02/13 08:00:20;;;;;;;32.40;15.95;;;;;;;6.35;100.00;103726.03;5038567;28;20029;-75
2023/02/13 08:02:46;;;;;;;29.73;15.73;;;;;;;6.34;100.00;103716.44;5038938;28;20108;-75
2023/02/13 08:05:11;;;;;;;29.08;15.85;;;;;;;6.34;100.00;103729.44;5038796;28;20057;-75
2023/02/13 08:07:37;;;;;;;30.20;16.00;;;;;;;6.34;100.00;103719.03;5038428;28;20042;-75
2023/02/13 08:12:51;;;;;;;35.65;17.58;;;;;;;6.32;100.00;103726.81;5036767;28;20043;-75
2023/02/13 08:15:16;;;;;;;33.22;17.92;;;;;;;6.31;100.00;103731.97;5035351;28;20048;-75
2023/02/13 08:17:42;;;;;;;35.28;18.60;;;;;;;6.28;100.00;103729.31;5029437;28;20108;-75
2023/02/13 08:20:08;;;;;;;33.42;17.77;;;;;;;6.26;100.00;103742.28;5033231;28;20345;-75
2023/02/13 08:22:35;;;;;;;34.83;19.15;;;;;;;6.25;100.00;103731.84;5036934;28;20057;-75
2023/02/13 08:25:01;;;;;;;33.90;17.60;;;;;;;6.24;100.00;103732.66;5038050;28;20041;-75
2023/02/13 08:27:29;;;;;;;43.00;22.65;;;;;;;6.21;100.00;103730.88;5037325;28;20213;-75
2023/02/13 08:29:55;;;;;;;40.08;20.52;;;;;;;6.18;99.94;103727.34;5037109;28;20049;-75
2023/02/13 08:32:20;;;;;;;37.72;20.25;;;;;;;6.15;99.55;103733.34;5036857;28;20316;-75
2023/02/13 08:34:46;;;;;;;45.70;22.25;;;;;;;6.12;99.60;103734.16;5028856;28;20072;-75
2023/02/13 08:37:11;;;;;;;43.55;21.60;;;;;;;6.11;99.72;103732.41;5037046;28;20097;-75
2023/02/13 08:39:36;;;;;;;47.38;21.55;;;;;;;6.09;99.84;103736.69;5036673;28;20357;-75
2023/02/13 08:42:02;;;;;;;40.22;20.25;;;;;;;6.10;99.89;103732.34;5037746;28;20041;-75
2023/02/13 08:44:27;;;;;;;37.22;19.88;;;;;;;6.09;99.91;103733.19;5037446;28;20029;-75
2023/02/13 08:46:53;;;;;;;41.60;19.65;;;;;;;6.09;99.97;103739.28;5037632;28;20033;-75
2023/02/13 08:49:18;;;;;;;40.42;22.02;;;;;;;6.09;99.96;103739.28;5033956;28;20033;-75
2023/02/13 08:51:44;;;;;;;47.47;23.63;;;;;;;6.09;100.00;103741.91;5037856;28;20033;-75
2023/02/13 08:54:09;;;;;;;43.33;23.00;;;;;;;6.07;100.00;103742.69;5039775;28;20064;-75
2023/02/13 08:56:34;;;;;;;48.67;25.48;;;;;;;6.07;100.00;103740.09;5041159;28;20038;-75
2023/02/13 08:59:00;;;;;;;47.17;23.88;;;;;;;6.05;100.00;103744.38;5030159;28;20058;-75
2023/02/13 09:01:25;;;;;;;52.25;25.98;;;;;;;6.04;100.00;103745.19;5022741;28;20241;-75
2023/02/13 09:03:51;;;;;;;52.97;26.23;;;;;;;6.04;100.00;103740.00;5041282;28;20029;-75
2023/02/13 09:06:17;;;;;;;60.88;27.95;;;;;;;6.05;100.00;103740.03;5040398;28;20023;-75
2023/02/13 09:08:42;;;;;;;51.15;25.98;;;;;;;6.03;100.00;103739.13;5041673;28;20263;-75
2023/02/13 09:11:08;;;;;;;44.97;23.60;;;;;;;6.05;100.00;103744.38;5041568;28;20303;-75
2023/02/13 09:13:35;;;;;;;52.90;25.33;;;;;;;6.05;100.00;103746.97;5040019;28;20045;-75
2023/02/13 09:16:03;;;;;;;60.67;28.85;;;;;;;6.04;100.00;103743.50;5039772;28;20025;-75
2023/02/13 09:18:29;;;;;;;50.78;26.15;;;;;;;6.05;100.00;103739.16;5024857;28;20071;-75
2023/02/13 09:20:58;;;;;;;41.67;22.55;;;;;;;6.06;100.00;103735.75;5022179;28;20049;-75
2023/02/13 09:23:23;;;;;;;48.92;25.52;;;;;;;6.07;100.00;103738.34;5040364;28;20037;-75
2023/02/13 09:25:49;;;;;;;44.47;23.40;;;;;;;6.10;100.00;103737.56;5038925;28;20084;-75
2023/02/13 09:28:14;;;;;;;56.67;26.88;;;;;;;6.11;100.00;103736.72;5041254;28;20345;-75
2023/02/13 09:30:40;;;;;;;53.08;27.00;;;;;;;6.13;100.00;103745.41;5041942;28;20029;-75
2023/02/13 09:33:10;;;;;;;50.00;25.80;;;;;;;6.13;100.00;103745.41;5041739;28;20051;-75
2023/02/13 09:35:36;;;;;;;58.20;28.80;;;;;;;6.13;100.00;103742.81;5041356;28;20261;-75
2023/02/13 09:38:02;;;;;;;54.05;27.50;;;;;;;6.14;100.00;103747.19;5039537;28;20045;-75
2023/02/13 09:40:42;;;;;;;57.58;28.20;;;;;;;6.13;100.00;103751.53;5041429;28;20075;-75
2023/02/13 09:43:16;;;;;;;58.63;28.80;;;;;;;6.15;100.00;103746.38;5039807;28;20028;-75
2023/02/13 09:45:46;;;;;;;53.15;26.83;;;;;;;6.14;100.00;103742.88;5034188;28;20069;-75
2023/02/13 09:48:26;;;;;;;57.75;28.95;;;;;;;6.15;100.00;103733.34;5021719;28;20060;-75
2023/02/13 09:50:52;;;;;;;53.22;26.95;;;;;;;6.16;100.00;103737.69;5021916;28;20361;-75
2023/02/13 09:53:22;;;;;;;55.60;26.27;;;;;;;6.20;100.00;103738.66;5033160;28;20041;-75
2023/02/13 09:56:00;;;;;;;56.33;28.63;;;;;;;6.23;100.00;103741.34;5041498;28;20040;-75
2023/02/13 09:58:46;;;;;;;61.47;28.77;;;;;;;6.23;100.00;103742.22;5021106;28;20041;-75
2023/02/13 10:01:22;;;;;;;61.88;29.05;;;;;;;6.23;100.00;103742.22;5021652;28;20434;-75
2023/02/13 10:04:24;;;;;;;56.72;28.13;;;;;;;6.24;100.00;103740.47;5021442;28;20041;-75
2023/02/13 10:07:05;;;;;;;55.92;28.77;;;;;;;6.26;100.00;103741.44;5033289;28;20221;-75
2023/02/13 10:10:05;;;;;;;64.05;29.08;;;;;;;6.27;100.00;103738.84;5040453;28;20261;-75
2023/02/13 10:12:50;;;;;;;60.72;29.58;;;;;;;6.28;100.00;103742.34;5040133;28;20051;-75
2023/02/13 10:15:52;;;;;;;57.03;30.00;;;;;;;6.30;100.00;103746.72;5040606;28;20045;-75
2023/02/13 10:18:30;;;;;;;55.50;26.15;;;;;;;6.33;100.00;103740.69;5040423;28;20025;-75
2023/02/13 10:21:01;;;;;;;47.80;24.77;;;;;;;6.37;100.00;103726.03;5041134;28;20237;-75
2023/02/13 10:23:34;;;;;;;60.75;28.88;;;;;;;6.39;100.00;103727.84;5040393;28;20041;-75
2023/02/13 10:26:04;;;;;;;57.03;28.42;;;;;;;6.42;100.00;103730.53;5040750;28;20037;-75
2023/02/13 10:28:45;;;;;;;58.70;28.65;;;;;;;6.44;100.00;103725.31;5040357;28;20361;-75
2023/02/13 10:31:17;;;;;;;65.40;30.88;;;;;;;6.47;100.00;103726.28;5040795;28;20045;-75
2023/02/13 10:33:47;;;;;;;63.65;30.48;;;;;;;6.48;100.00;103728.06;5021108;28;20109;-75
2023/02/13 10:36:21;;;;;;;53.80;26.92;;;;;;;6.51;100.00;103720.31;5021167;28;20041;-75
2023/02/13 10:39:27;;;;;;;63.95;29.25;;;;;;;6.55;100.00;103718.66;5021026;28;20069;-75
2023/02/13 10:41:52;;;;;;;54.42;26.58;;;;;;;6.57;100.00;103724.78;5012521;28;20080;-75
2023/02/13 10:44:18;;;;;;;59.45;29.63;;;;;;;6.60;100.00;103719.63;5019999;28;20045;-75
2023/02/13 10:47:05;;;;;;;68.55;29.70;;;;;;;6.62;100.00;103712.75;5020818;28;20094;-75
2023/02/13 10:49:59;;;;;;;60.42;29.08;;;;;;;6.65;100.00;103715.38;5019764;28;20048;-75
2023/02/13 10:52:43;;;;;;;65.88;31.48;;;;;;;6.67;100.00;103713.69;5020238;28;20029;-75
2023/02/13 10:55:47;;;;;;;65.55;29.70;;;;;;;6.70;100.00;103718.13;5020826;28;20102;-75
2023/02/13 10:58:23;;;;;;;62.78;29.98;;;;;;;6.72;99.64;103713.81;4987356;28;20141;-75
2023/02/13 11:00:57;;;;;;;64.93;28.80;;;;;;;6.73;99.45;103716.44;5020703;28;20340;-75
2023/02/13 11:03:25;;;;;;;64.45;29.90;;;;;;;6.77;99.39;103719.09;5019507;28;20029;-75
2023/02/13 11:05:53;;;;;;;63.55;28.90;;;;;;;6.80;99.63;103712.22;5020833;28;20565;-75
2023/02/13 11:08:31;;;;;;;54.08;26.27;;;;;;;6.83;99.61;103703.63;5019671;28;20056;-75
2023/02/13 11:10:57;;;;;;;53.63;26.02;;;;;;;6.86;99.66;103709.78;5020220;28;20084;-75
2023/02/13 11:13:26;;;;;;;60.95;30.40;;;;;;;6.89;99.50;103698.53;5019856;28;20033;-74
2023/02/13 11:16:09;;;;;;;62.40;29.73;;;;;;;6.91;99.28;103708.16;5020466;28;20051;-75
2023/02/13 11:18:38;;;;;;;65.78;29.33;;;;;;;6.94;99.29;103699.50;5021523;28;20091;-75
2023/02/13 11:21:09;;;;;;;69.68;30.70;;;;;;;6.98;99.18;103697.84;5039269;28;20022;-75
2023/02/13 11:23:39;;;;;;;55.95;27.40;;;;;;;6.99;98.93;103692.66;5038552;28;20384;-75
2023/02/13 11:26:13;;;;;;;66.70;29.40;;;;;;;7.03;98.65;103691.00;5038778;28;20105;-75
2023/02/13 11:28:52;;;;;;;58.92;28.92;;;;;;;7.06;98.86;103676.31;5038088;28;20057;-75
2023/02/13 11:31:23;;;;;;;62.72;29.20;;;;;;;7.09;98.91;103676.38;5038421;28;20037;-75
2023/02/13 11:33:49;;;;;;;59.08;29.73;;;;;;;7.14;98.99;103671.22;5038254;28;20041;-75
2023/02/13 11:36:33;;;;;;;48.70;26.08;;;;;;;7.18;98.94;103673.03;5037831;28;20360;-75
2023/02/13 11:39:06;;;;;;;60.47;27.92;;;;;;;7.21;98.46;103670.50;5038594;28;20379;-75
2023/02/13 11:41:39;;;;;;;57.30;28.45;;;;;;;7.25;98.40;103676.63;5038082;28;20033;-75
2023/02/13 11:44:19;;;;;;;57.75;28.55;;;;;;;7.28;98.51;103655.84;5038456;28;20340;-75
2023/02/13 11:46:47;;;;;;;60.00;28.73;;;;;;;7.34;98.26;103662.91;5038438;28;20212;-75
2023/02/13 11:49:24;;;;;;;63.07;29.57;;;;;;;7.36;97.69;103663.81;5038458;28;20203;-75
2023/02/13 11:51:53;;;;;;;56.90;27.70;;;;;;;7.40;97.84;103653.44;5039006;28;20033;-75
2023/02/13 11:54:22;;;;;;;59.70;29.80;;;;;;;7.44;97.52;103659.59;5038817;28;20025;-75
2023/02/13 11:56:53;;;;;;;61.17;28.85;;;;;;;7.47;96.72;103655.31;5039431;28;20244;-74
2023/02/13 11:59:23;;;;;;;64.10;29.13;;;;;;;7.49;96.40;103661.47;5038677;28;20039;-74
2023/02/13 12:02:03;;;;;;;59.63;28.80;;;;;;;7.53;96.13;103654.56;5039665;28;20055;-74
2023/02/13 12:04:28;;;;;;;56.10;27.25;;;;;;;7.56;96.37;103657.19;5038802;28;20025;-75
2023/02/13 12:07:28;;;;;;;54.58;27.52;;;;;;;7.59;96.60;103657.25;5040133;28;20095;-74
2023/02/13 12:10:14;;;;;;;56.38;27.63;;;;;;;7.62;96.77;103646.88;5024393;28;20272;-75